sensor_id;sensor_type;location;lat;lon;timestamp;temperature;humidity
52231;DHT22;38192;50.102;19.884;2022-07-30T00:01:51;19.90;99.90
52231;DHT22;38192;50.102;19.884;2022-07-30T00:04:17;19.80;99.90
52231;DHT22;38192;50.102;19.884;2022-07-30T00:06:43;19.80;99.90
52231;DHT22;38192;50.102;19.884;2022-07-30T00:09:10;19.80;99.90
52231;DHT22;38192;50.102;19.884;2022-07-30T00:11:36;19.80;99.90
52231;DHT22;38192;50.102;19.884;2022-07-30T00:14:02;19.80;99.90
52231;DHT22;38192;50.102;19.884;2022-07-30T00:16:29;19.80;99.90
52231;DHT22;38192;50.102;19.884;2022-07-30T00:18:55;19.80;99.90
52231;DHT22;38192;50.102;19.884;2022-07-30T00:21:21;19.80;99.90
52231;DHT22;38192;50.102;19.884;2022-07-30T00:23:47;19.80;99.90
52231;DHT22;38192;50.102;19.884;2022-07-30T00:26:13;19.70;99.90
52231;DHT22;38192;50.102;19.884;2022-07-30T00:28:40;19.70;99.90
52231;DHT22;38192;50.102;19.884;2022-07-30T00:31:06;19.70;99.90
52231;DHT22;38192;50.102;19.884;2022-07-30T00:33:33;19.60;99.90
52231;DHT22;38192;50.102;19.884;2022-07-30T00:35:59;19.60;99.90
52231;DHT22;38192;50.102;19.884;2022-07-30T00:38:26;19.60;99.90
52231;DHT22;38192;50.102;19.884;2022-07-30T00:40:53;19.60;99.90
52231;DHT22;38192;50.102;19.884;2022-07-30T00:43:19;19.60;99.90
52231;DHT22;38192;50.102;19.884;2022-07-30T00:45:46;19.60;99.90
52231;DHT22;38192;50.102;19.884;2022-07-30T00:48:13;19.60;99.90
52231;DHT22;38192;50.102;19.884;2022-07-30T00:50:40;19.70;99.90
52231;DHT22;38192;50.102;19.884;2022-07-30T00:53:07;19.70;99.90
52231;DHT22;38192;50.102;19.884;2022-07-30T00:55:34;19.70;99.90
52231;DHT22;38192;50.102;19.884;2022-07-30T00:58:00;19.80;99.90
52231;DHT22;38192;50.102;19.884;2022-07-30T01:00:26;19.80;99.90
52231;DHT22;38192;50.102;19.884;2022-07-30T01:02:52;19.80;99.90
52231;DHT22;38192;50.102;19.884;2022-07-30T01:05:18;19.90;99.90
52231;DHT22;38192;50.102;19.884;2022-07-30T01:07:45;19.90;99.90
52231;DHT22;38192;50.102;19.884;2022-07-30T01:10:13;19.90;99.90
52231;DHT22;38192;50.102;19.884;2022-07-30T01:12:40;20.00;99.90
52231;DHT22;38192;50.102;19.884;2022-07-30T01:15:08;20.00;99.90
52231;DHT22;38192;50.102;19.884;2022-07-30T01:17:36;20.00;99.90
52231;DHT22;38192;50.102;19.884;2022-07-30T01:20:14;20.00;99.90
52231;DHT22;38192;50.102;19.884;2022-07-30T01:23:03;20.00;99.90
52231;DHT22;38192;50.102;19.884;2022-07-30T01:28:20;20.10;99.90
52231;DHT22;38192;50.102;19.884;2022-07-30T01:30:47;20.00;99.90
52231;DHT22;38192;50.102;19.884;2022-07-30T01:33:15;20.10;99.90
52231;DHT22;38192;50.102;19.884;2022-07-30T01:35:45;20.10;99.90
52231;DHT22;38192;50.102;19.884;2022-07-30T01:38:13;20.10;99.90
52231;DHT22;38192;50.102;19.884;2022-07-30T01:40:43;20.10;99.90
52231;DHT22;38192;50.102;19.884;2022-07-30T01:43:10;20.10;99.90
52231;DHT22;38192;50.102;19.884;2022-07-30T01:45:37;20.10;99.90
52231;DHT22;38192;50.102;19.884;2022-07-30T01:48:05;20.10;99.90
52231;DHT22;38192;50.102;19.884;2022-07-30T01:50:34;20.10;99.90
52231;DHT22;38192;50.102;19.884;2022-07-30T01:53:01;20.10;99.90
52231;DHT22;38192;50.102;19.884;2022-07-30T01:55:36;20.10;99.90
52231;DHT22;38192;50.102;19.884;2022-07-30T01:58:05;20.10;99.90
52231;DHT22;38192;50.102;19.884;2022-07-30T02:00:35;20.10;99.90
52231;DHT22;38192;50.102;19.884;2022-07-30T02:03:04;20.10;99.90
52231;DHT22;38192;50.102;19.884;2022-07-30T02:05:31;20.10;99.90
52231;DHT22;38192;50.102;19.884;2022-07-30T02:08:21;20.10;99.90
52231;DHT22;38192;50.102;19.884;2022-07-30T02:10:57;20.10;99.90
52231;DHT22;38192;50.102;19.884;2022-07-30T02:13:27;20.10;99.90
52231;DHT22;38192;50.102;19.884;2022-07-30T02:18:52;20.10;99.90
52231;DHT22;38192;50.102;19.884;2022-07-30T02:21:33;20.20;99.90
52231;DHT22;38192;50.102;19.884;2022-07-30T02:24:03;20.10;99.90
52231;DHT22;38192;50.102;19.884;2022-07-30T02:26:30;20.10;99.90
52231;DHT22;38192;50.102;19.884;2022-07-30T02:29:00;20.20;99.90
52231;DHT22;38192;50.102;19.884;2022-07-30T02:31:28;20.20;99.90
52231;DHT22;38192;50.102;19.884;2022-07-30T02:33:59;20.20;99.90
52231;DHT22;38192;50.102;19.884;2022-07-30T02:36:27;20.20;99.90
52231;DHT22;38192;50.102;19.884;2022-07-30T02:38:54;20.20;99.90
52231;DHT22;38192;50.102;19.884;2022-07-30T02:41:23;20.10;99.90
52231;DHT22;38192;50.102;19.884;2022-07-30T02:43:51;20.10;99.90
52231;DHT22;38192;50.102;19.884;2022-07-30T02:46:19;20.20;99.90
52231;DHT22;38192;50.102;19.884;2022-07-30T02:49:25;20.10;99.90
52231;DHT22;38192;50.102;19.884;2022-07-30T02:51:53;20.20;99.90
52231;DHT22;38192;50.102;19.884;2022-07-30T02:54:21;20.10;99.90
52231;DHT22;38192;50.102;19.884;2022-07-30T02:56:48;20.20;99.90
52231;DHT22;38192;50.102;19.884;2022-07-30T02:59:16;20.20;99.90
52231;DHT22;38192;50.102;19.884;2022-07-30T03:01:45;20.20;99.90
52231;DHT22;38192;50.102;19.884;2022-07-30T03:04:12;20.20;99.90
52231;DHT22;38192;50.102;19.884;2022-07-30T03:06:39;20.20;99.90
52231;DHT22;38192;50.102;19.884;2022-07-30T03:09:06;20.20;99.90
52231;DHT22;38192;50.102;19.884;2022-07-30T03:11:35;20.30;99.90
52231;DHT22;38192;50.102;19.884;2022-07-30T03:14:01;20.30;99.90
52231;DHT22;38192;50.102;19.884;2022-07-30T03:16:28;20.30;99.90
52231;DHT22;38192;50.102;19.884;2022-07-30T03:18:58;20.30;99.90
52231;DHT22;38192;50.102;19.884;2022-07-30T03:21:28;20.30;99.90
52231;DHT22;38192;50.102;19.884;2022-07-30T03:23:55;20.30;99.90
52231;DHT22;38192;50.102;19.884;2022-07-30T03:26:24;20.30;99.90
52231;DHT22;38192;50.102;19.884;2022-07-30T03:28:51;20.30;99.90
52231;DHT22;38192;50.102;19.884;2022-07-30T03:31:18;20.30;99.90
52231;DHT22;38192;50.102;19.884;2022-07-30T03:33:45;20.30;99.90
52231;DHT22;38192;50.102;19.884;2022-07-30T03:36:12;20.30;99.90
52231;DHT22;38192;50.102;19.884;2022-07-30T03:38:40;20.30;99.90
52231;DHT22;38192;50.102;19.884;2022-07-30T03:41:09;20.30;99.90
52231;DHT22;38192;50.102;19.884;2022-07-30T03:43:37;20.30;99.90
52231;DHT22;38192;50.102;19.884;2022-07-30T03:46:04;20.30;99.90
52231;DHT22;38192;50.102;19.884;2022-07-30T03:48:35;20.30;99.90
52231;DHT22;38192;50.102;19.884;2022-07-30T03:51:05;20.30;99.90
52231;DHT22;38192;50.102;19.884;2022-07-30T03:53:32;20.30;99.90
52231;DHT22;38192;50.102;19.884;2022-07-30T03:56:29;20.30;99.90
52231;DHT22;38192;50.102;19.884;2022-07-30T03:59:08;20.30;99.90
52231;DHT22;38192;50.102;19.884;2022-07-30T04:01:37;20.30;99.90
52231;DHT22;38192;50.102;19.884;2022-07-30T04:04:14;20.30;99.90
52231;DHT22;38192;50.102;19.884;2022-07-30T04:06:40;20.30;99.90
52231;DHT22;38192;50.102;19.884;2022-07-30T04:09:10;20.30;99.90
52231;DHT22;38192;50.102;19.884;2022-07-30T04:11:36;20.30;99.90
52231;DHT22;38192;50.102;19.884;2022-07-30T04:14:07;20.40;99.90
52231;DHT22;38192;50.102;19.884;2022-07-30T04:16:58;20.40;99.90
52231;DHT22;38192;50.102;19.884;2022-07-30T04:19:29;20.40;99.90
52231;DHT22;38192;50.102;19.884;2022-07-30T04:21:57;20.40;99.90
52231;DHT22;38192;50.102;19.884;2022-07-30T04:24:26;20.50;99.90
52231;DHT22;38192;50.102;19.884;2022-07-30T04:26:53;20.50;99.90
52231;DHT22;38192;50.102;19.884;2022-07-30T04:29:19;20.60;99.90
52231;DHT22;38192;50.102;19.884;2022-07-30T04:31:45;20.60;99.90
52231;DHT22;38192;50.102;19.884;2022-07-30T04:34:34;20.60;99.90
52231;DHT22;38192;50.102;19.884;2022-07-30T04:37:03;20.60;99.90
52231;DHT22;38192;50.102;19.884;2022-07-30T04:39:29;20.70;99.90
52231;DHT22;38192;50.102;19.884;2022-07-30T04:41:55;20.70;99.90
52231;DHT22;38192;50.102;19.884;2022-07-30T04:44:33;20.70;99.90
52231;DHT22;38192;50.102;19.884;2022-07-30T04:47:23;20.80;99.90
52231;DHT22;38192;50.102;19.884;2022-07-30T04:50:15;20.80;99.90
52231;DHT22;38192;50.102;19.884;2022-07-30T04:52:45;20.80;99.90
52231;DHT22;38192;50.102;19.884;2022-07-30T04:55:15;20.90;99.90
52231;DHT22;38192;50.102;19.884;2022-07-30T04:57:45;20.90;99.90
52231;DHT22;38192;50.102;19.884;2022-07-30T05:00:13;21.00;99.90
52231;DHT22;38192;50.102;19.884;2022-07-30T05:02:41;21.00;99.90
52231;DHT22;38192;50.102;19.884;2022-07-30T05:05:10;21.00;99.90
52231;DHT22;38192;50.102;19.884;2022-07-30T05:07:37;21.00;99.90
52231;DHT22;38192;50.102;19.884;2022-07-30T05:10:05;21.00;99.90
52231;DHT22;38192;50.102;19.884;2022-07-30T05:12:35;21.00;99.90
52231;DHT22;38192;50.102;19.884;2022-07-30T05:15:06;21.00;99.90
52231;DHT22;38192;50.102;19.884;2022-07-30T05:17:32;21.10;99.90
52231;DHT22;38192;50.102;19.884;2022-07-30T05:20:01;21.10;99.90
52231;DHT22;38192;50.102;19.884;2022-07-30T05:22:32;21.10;99.90
52231;DHT22;38192;50.102;19.884;2022-07-30T05:24:58;21.20;99.90
52231;DHT22;38192;50.102;19.884;2022-07-30T05:27:24;21.30;99.90
52231;DHT22;38192;50.102;19.884;2022-07-30T05:29:50;21.30;99.90
52231;DHT22;38192;50.102;19.884;2022-07-30T05:32:18;21.40;99.90
52231;DHT22;38192;50.102;19.884;2022-07-30T05:34:44;21.50;99.90
52231;DHT22;38192;50.102;19.884;2022-07-30T05:37:10;21.50;99.90
52231;DHT22;38192;50.102;19.884;2022-07-30T05:39:36;21.60;99.90
52231;DHT22;38192;50.102;19.884;2022-07-30T05:42:24;21.70;99.90
52231;DHT22;38192;50.102;19.884;2022-07-30T05:44:54;21.70;99.90
52231;DHT22;38192;50.102;19.884;2022-07-30T05:47:20;21.70;99.90
52231;DHT22;38192;50.102;19.884;2022-07-30T05:49:46;21.80;99.90
52231;DHT22;38192;50.102;19.884;2022-07-30T05:52:12;21.90;99.90
52231;DHT22;38192;50.102;19.884;2022-07-30T05:54:38;22.00;99.90
52231;DHT22;38192;50.102;19.884;2022-07-30T05:57:23;22.00;99.90
52231;DHT22;38192;50.102;19.884;2022-07-30T05:59:48;22.00;99.90
52231;DHT22;38192;50.102;19.884;2022-07-30T06:02:22;22.10;99.90
52231;DHT22;38192;50.102;19.884;2022-07-30T06:05:02;22.10;99.90
52231;DHT22;38192;50.102;19.884;2022-07-30T06:07:28;22.10;99.90
52231;DHT22;38192;50.102;19.884;2022-07-30T06:09:56;22.10;99.90
52231;DHT22;38192;50.102;19.884;2022-07-30T06:12:26;22.10;99.90
52231;DHT22;38192;50.102;19.884;2022-07-30T06:14:52;22.10;99.90
52231;DHT22;38192;50.102;19.884;2022-07-30T06:17:24;22.10;99.90
52231;DHT22;38192;50.102;19.884;2022-07-30T06:20:12;22.10;99.90
52231;DHT22;38192;50.102;19.884;2022-07-30T06:22:53;22.10;99.90
52231;DHT22;38192;50.102;19.884;2022-07-30T06:25:26;22.20;99.90
52231;DHT22;38192;50.102;19.884;2022-07-30T06:27:52;22.30;99.90
52231;DHT22;38192;50.102;19.884;2022-07-30T06:30:18;22.30;99.90
52231;DHT22;38192;50.102;19.884;2022-07-30T06:32:44;22.40;99.90
52231;DHT22;38192;50.102;19.884;2022-07-30T06:35:12;22.40;99.90
52231;DHT22;38192;50.102;19.884;2022-07-30T06:37:38;22.40;99.90
52231;DHT22;38192;50.102;19.884;2022-07-30T06:40:05;22.50;99.90
52231;DHT22;38192;50.102;19.884;2022-07-30T06:42:44;22.50;99.90
52231;DHT22;38192;50.102;19.884;2022-07-30T06:45:49;22.60;99.90
52231;DHT22;38192;50.102;19.884;2022-07-30T06:48:19;22.60;99.90
52231;DHT22;38192;50.102;19.884;2022-07-30T06:50:46;22.50;99.90
52231;DHT22;38192;50.102;19.884;2022-07-30T06:53:12;22.60;99.90
52231;DHT22;38192;50.102;19.884;2022-07-30T06:55:58;22.60;99.90
52231;DHT22;38192;50.102;19.884;2022-07-30T06:58:26;22.60;99.90
52231;DHT22;38192;50.102;19.884;2022-07-30T07:01:19;22.60;99.90
52231;DHT22;38192;50.102;19.884;2022-07-30T07:03:48;22.70;99.90
52231;DHT22;38192;50.102;19.884;2022-07-30T07:06:14;22.70;99.90
52231;DHT22;38192;50.102;19.884;2022-07-30T07:08:41;22.70;99.90
52231;DHT22;38192;50.102;19.884;2022-07-30T07:11:12;22.80;99.90
52231;DHT22;38192;50.102;19.884;2022-07-30T07:13:46;22.80;99.90
52231;DHT22;38192;50.102;19.884;2022-07-30T07:16:21;22.90;99.90
52231;DHT22;38192;50.102;19.884;2022-07-30T07:18:52;23.00;99.90
52231;DHT22;38192;50.102;19.884;2022-07-30T07:21:18;23.10;99.90
52231;DHT22;38192;50.102;19.884;2022-07-30T07:23:44;23.20;99.90
52231;DHT22;38192;50.102;19.884;2022-07-30T07:26:33;23.20;99.90
52231;DHT22;38192;50.102;19.884;2022-07-30T07:28:59;23.30;99.90
52231;DHT22;38192;50.102;19.884;2022-07-30T07:31:25;23.40;99.90
52231;DHT22;38192;50.102;19.884;2022-07-30T07:33:50;23.50;99.90
52231;DHT22;38192;50.102;19.884;2022-07-30T07:36:22;23.50;99.90
52231;DHT22;38192;50.102;19.884;2022-07-30T07:38:49;23.60;99.90
52231;DHT22;38192;50.102;19.884;2022-07-30T07:41:15;23.60;99.90
52231;DHT22;38192;50.102;19.884;2022-07-30T07:43:42;23.70;99.90
52231;DHT22;38192;50.102;19.884;2022-07-30T07:46:12;23.60;99.90
52231;DHT22;38192;50.102;19.884;2022-07-30T07:48:44;23.60;99.90
52231;DHT22;38192;50.102;19.884;2022-07-30T07:51:39;23.70;99.90
52231;DHT22;38192;50.102;19.884;2022-07-30T07:54:09;23.70;99.90
52231;DHT22;38192;50.102;19.884;2022-07-30T07:56:35;23.80;99.90
52231;DHT22;38192;50.102;19.884;2022-07-30T07:59:01;23.80;99.90
52231;DHT22;38192;50.102;19.884;2022-07-30T08:01:28;23.90;99.90
52231;DHT22;38192;50.102;19.884;2022-07-30T08:04:31;24.00;99.90
52231;DHT22;38192;50.102;19.884;2022-07-30T08:07:28;24.10;99.90
52231;DHT22;38192;50.102;19.884;2022-07-30T08:10:13;24.20;99.90
52231;DHT22;38192;50.102;19.884;2022-07-30T08:12:59;24.30;99.90
52231;DHT22;38192;50.102;19.884;2022-07-30T08:15:45;24.30;99.90
52231;DHT22;38192;50.102;19.884;2022-07-30T08:18:30;24.40;99.90
52231;DHT22;38192;50.102;19.884;2022-07-30T08:21:09;24.50;99.90
52231;DHT22;38192;50.102;19.884;2022-07-30T08:23:35;24.60;99.90
52231;DHT22;38192;50.102;19.884;2022-07-30T08:26:01;24.60;99.90
52231;DHT22;38192;50.102;19.884;2022-07-30T08:28:27;24.70;99.90
52231;DHT22;38192;50.102;19.884;2022-07-30T08:30:54;24.70;99.90
52231;DHT22;38192;50.102;19.884;2022-07-30T08:33:20;24.80;99.90
52231;DHT22;38192;50.102;19.884;2022-07-30T08:35:46;24.90;99.90
52231;DHT22;38192;50.102;19.884;2022-07-30T08:38:12;25.00;99.90
52231;DHT22;38192;50.102;19.884;2022-07-30T08:40:39;25.00;99.90
52231;DHT22;38192;50.102;19.884;2022-07-30T08:43:06;25.10;99.90
52231;DHT22;38192;50.102;19.884;2022-07-30T08:45:33;25.20;99.90
52231;DHT22;38192;50.102;19.884;2022-07-30T08:48:10;25.30;99.90
52231;DHT22;38192;50.102;19.884;2022-07-30T08:50:43;25.40;99.90
52231;DHT22;38192;50.102;19.884;2022-07-30T08:53:32;25.60;99.90
52231;DHT22;38192;50.102;19.884;2022-07-30T08:55:59;25.80;99.90
52231;DHT22;38192;50.102;19.884;2022-07-30T08:58:31;26.00;99.90
52231;DHT22;38192;50.102;19.884;2022-07-30T09:00:58;26.30;99.90
52231;DHT22;38192;50.102;19.884;2022-07-30T09:03:27;26.50;99.90
52231;DHT22;38192;50.102;19.884;2022-07-30T09:05:56;26.60;99.00
52231;DHT22;38192;50.102;19.884;2022-07-30T09:08:22;26.70;98.20
52231;DHT22;38192;50.102;19.884;2022-07-30T09:10:49;26.90;97.70
52231;DHT22;38192;50.102;19.884;2022-07-30T09:13:23;27.00;96.20
52231;DHT22;38192;50.102;19.884;2022-07-30T09:15:49;27.00;96.80
52231;DHT22;38192;50.102;19.884;2022-07-30T09:18:29;27.00;96.60
52231;DHT22;38192;50.102;19.884;2022-07-30T09:21:11;27.10;96.00
52231;DHT22;38192;50.102;19.884;2022-07-30T09:23:38;27.20;95.40
52231;DHT22;38192;50.102;19.884;2022-07-30T09:26:03;27.30;95.30
52231;DHT22;38192;50.102;19.884;2022-07-30T09:29:19;27.40;96.30
52231;DHT22;38192;50.102;19.884;2022-07-30T09:32:05;27.60;95.20
52231;DHT22;38192;50.102;19.884;2022-07-30T09:34:51;27.70;95.00
52231;DHT22;38192;50.102;19.884;2022-07-30T09:37:35;27.80;94.30
52231;DHT22;38192;50.102;19.884;2022-07-30T09:40:21;27.90;93.40
52231;DHT22;38192;50.102;19.884;2022-07-30T09:43:25;27.90;92.60
52231;DHT22;38192;50.102;19.884;2022-07-30T09:45:56;28.10;92.70
52231;DHT22;38192;50.102;19.884;2022-07-30T09:48:25;28.30;92.80
52231;DHT22;38192;50.102;19.884;2022-07-30T09:50:52;28.60;90.10
52231;DHT22;38192;50.102;19.884;2022-07-30T09:53:20;28.90;89.00
52231;DHT22;38192;50.102;19.884;2022-07-30T09:55:49;29.10;86.50
52231;DHT22;38192;50.102;19.884;2022-07-30T09:58:15;29.30;84.20
52231;DHT22;38192;50.102;19.884;2022-07-30T10:00:42;29.40;83.60
52231;DHT22;38192;50.102;19.884;2022-07-30T10:03:30;29.60;82.00
52231;DHT22;38192;50.102;19.884;2022-07-30T10:06:35;29.70;80.20
52231;DHT22;38192;50.102;19.884;2022-07-30T10:09:06;30.00;79.30
52231;DHT22;38192;50.102;19.884;2022-07-30T10:11:32;30.10;77.20
52231;DHT22;38192;50.102;19.884;2022-07-30T10:14:00;30.20;76.40
52231;DHT22;38192;50.102;19.884;2022-07-30T10:16:28;30.40;74.10
52231;DHT22;38192;50.102;19.884;2022-07-30T10:18:59;30.50;74.70
52231;DHT22;38192;50.102;19.884;2022-07-30T10:21:48;30.80;74.10
52231;DHT22;38192;50.102;19.884;2022-07-30T10:24:40;31.00;73.60
52231;DHT22;38192;50.102;19.884;2022-07-30T10:27:18;31.30;72.20
52231;DHT22;38192;50.102;19.884;2022-07-30T10:29:57;31.50;70.10
52231;DHT22;38192;50.102;19.884;2022-07-30T10:32:27;31.60;68.30
52231;DHT22;38192;50.102;19.884;2022-07-30T10:34:53;31.60;67.30
52231;DHT22;38192;50.102;19.884;2022-07-30T10:37:21;31.60;68.00
52231;DHT22;38192;50.102;19.884;2022-07-30T10:39:56;31.70;67.60
52231;DHT22;38192;50.102;19.884;2022-07-30T10:48:18;31.90;65.60
52231;DHT22;38192;50.102;19.884;2022-07-30T10:50:55;31.90;65.30
52231;DHT22;38192;50.102;19.884;2022-07-30T10:53:51;32.00;64.50
52231;DHT22;38192;50.102;19.884;2022-07-30T10:56:18;32.00;65.80
52231;DHT22;38192;50.102;19.884;2022-07-30T10:59:16;32.00;65.60
52231;DHT22;38192;50.102;19.884;2022-07-30T11:04:24;31.80;67.70
52231;DHT22;38192;50.102;19.884;2022-07-30T11:06:52;31.70;69.00
52231;DHT22;38192;50.102;19.884;2022-07-30T11:09:38;31.70;69.80
52231;DHT22;38192;50.102;19.884;2022-07-30T11:12:05;31.60;69.30
52231;DHT22;38192;50.102;19.884;2022-07-30T11:17:17;31.50;69.60
52231;DHT22;38192;50.102;19.884;2022-07-30T11:22:33;31.40;69.10
52231;DHT22;38192;50.102;19.884;2022-07-30T11:27:59;31.30;69.70
52231;DHT22;38192;50.102;19.884;2022-07-30T11:32:55;31.20;69.50
52231;DHT22;38192;50.102;19.884;2022-07-30T11:35:22;31.10;69.10
52231;DHT22;38192;50.102;19.884;2022-07-30T11:43:28;31.10;69.10
52231;DHT22;38192;50.102;19.884;2022-07-30T11:48:36;31.10;69.70
52231;DHT22;38192;50.102;19.884;2022-07-30T11:51:02;31.00;70.00
52231;DHT22;38192;50.102;19.884;2022-07-30T11:53:28;30.90;70.20
52231;DHT22;38192;50.102;19.884;2022-07-30T11:55:59;30.90;70.40
52231;DHT22;38192;50.102;19.884;2022-07-30T11:58:36;30.90;71.70
52231;DHT22;38192;50.102;19.884;2022-07-30T12:01:14;30.90;71.90
52231;DHT22;38192;50.102;19.884;2022-07-30T12:03:42;31.00;71.60
52231;DHT22;38192;50.102;19.884;2022-07-30T12:06:10;31.10;72.20
52231;DHT22;38192;50.102;19.884;2022-07-30T12:08:48;31.20;71.50
52231;DHT22;38192;50.102;19.884;2022-07-30T12:11:14;31.20;71.20
52231;DHT22;38192;50.102;19.884;2022-07-30T12:13:41;31.30;71.30
52231;DHT22;38192;50.102;19.884;2022-07-30T12:16:15;31.40;70.20
52231;DHT22;38192;50.102;19.884;2022-07-30T12:18:41;31.30;70.00
52231;DHT22;38192;50.102;19.884;2022-07-30T12:21:11;31.20;71.00
52231;DHT22;38192;50.102;19.884;2022-07-30T12:23:38;31.10;71.00
52231;DHT22;38192;50.102;19.884;2022-07-30T12:26:06;31.00;70.90
52231;DHT22;38192;50.102;19.884;2022-07-30T12:28:34;30.90;71.70
52231;DHT22;38192;50.102;19.884;2022-07-30T12:31:00;30.80;72.40
52231;DHT22;38192;50.102;19.884;2022-07-30T12:33:30;30.70;72.50
52231;DHT22;38192;50.102;19.884;2022-07-30T12:35:58;30.50;72.30
52231;DHT22;38192;50.102;19.884;2022-07-30T12:38:26;30.40;72.30
52231;DHT22;38192;50.102;19.884;2022-07-30T12:41:04;30.40;74.30
52231;DHT22;38192;50.102;19.884;2022-07-30T12:43:52;30.20;73.60
52231;DHT22;38192;50.102;19.884;2022-07-30T12:46:26;30.00;74.10
52231;DHT22;38192;50.102;19.884;2022-07-30T12:49:03;29.80;75.40
52231;DHT22;38192;50.102;19.884;2022-07-30T12:51:34;29.60;75.60
52231;DHT22;38192;50.102;19.884;2022-07-30T12:54:01;29.50;76.40
52231;DHT22;38192;50.102;19.884;2022-07-30T12:56:38;29.40;77.30
52231;DHT22;38192;50.102;19.884;2022-07-30T12:59:20;29.20;78.20
52231;DHT22;38192;50.102;19.884;2022-07-30T13:01:45;29.00;80.00
52231;DHT22;38192;50.102;19.884;2022-07-30T13:04:13;28.90;81.10
52231;DHT22;38192;50.102;19.884;2022-07-30T13:06:39;28.80;81.90
52231;DHT22;38192;50.102;19.884;2022-07-30T13:09:15;28.60;82.60
52231;DHT22;38192;50.102;19.884;2022-07-30T13:11:43;28.50;83.60
52231;DHT22;38192;50.102;19.884;2022-07-30T13:14:10;28.40;85.80
52231;DHT22;38192;50.102;19.884;2022-07-30T13:16:38;28.30;86.40
52231;DHT22;38192;50.102;19.884;2022-07-30T13:19:08;28.10;90.30
52231;DHT22;38192;50.102;19.884;2022-07-30T13:21:36;27.80;91.40
52231;DHT22;38192;50.102;19.884;2022-07-30T13:24:03;27.50;92.60
52231;DHT22;38192;50.102;19.884;2022-07-30T13:26:29;27.10;94.60
52231;DHT22;38192;50.102;19.884;2022-07-30T13:28:55;26.80;96.50
52231;DHT22;38192;50.102;19.884;2022-07-30T13:31:22;26.40;98.20
52231;DHT22;38192;50.102;19.884;2022-07-30T13:33:48;26.10;99.90
52231;DHT22;38192;50.102;19.884;2022-07-30T13:36:14;25.80;99.90
52231;DHT22;38192;50.102;19.884;2022-07-30T13:38:42;25.60;99.90
52231;DHT22;38192;50.102;19.884;2022-07-30T13:41:08;25.40;99.90
52231;DHT22;38192;50.102;19.884;2022-07-30T13:43:34;25.30;99.90
52231;DHT22;38192;50.102;19.884;2022-07-30T13:46:02;25.20;99.90
52231;DHT22;38192;50.102;19.884;2022-07-30T13:48:29;25.10;99.90
52231;DHT22;38192;50.102;19.884;2022-07-30T13:50:56;25.00;99.90
52231;DHT22;38192;50.102;19.884;2022-07-30T13:53:22;24.80;99.90
52231;DHT22;38192;50.102;19.884;2022-07-30T13:55:48;24.70;99.90
52231;DHT22;38192;50.102;19.884;2022-07-30T13:58:14;24.50;99.90
52231;DHT22;38192;50.102;19.884;2022-07-30T14:00:40;24.30;99.90
52231;DHT22;38192;50.102;19.884;2022-07-30T14:03:08;24.10;99.90
52231;DHT22;38192;50.102;19.884;2022-07-30T14:05:35;24.00;99.90
52231;DHT22;38192;50.102;19.884;2022-07-30T14:08:03;23.70;99.90
52231;DHT22;38192;50.102;19.884;2022-07-30T14:10:29;23.50;99.90
52231;DHT22;38192;50.102;19.884;2022-07-30T14:12:56;23.20;99.90
52231;DHT22;38192;50.102;19.884;2022-07-30T14:15:26;23.00;99.90
52231;DHT22;38192;50.102;19.884;2022-07-30T14:17:52;22.90;99.90
52231;DHT22;38192;50.102;19.884;2022-07-30T14:20:18;22.70;99.90
52231;DHT22;38192;50.102;19.884;2022-07-30T14:22:45;22.60;99.90
52231;DHT22;38192;50.102;19.884;2022-07-30T14:25:11;22.50;99.90
52231;DHT22;38192;50.102;19.884;2022-07-30T14:27:38;22.40;99.90
52231;DHT22;38192;50.102;19.884;2022-07-30T14:30:06;22.40;99.90
52231;DHT22;38192;50.102;19.884;2022-07-30T14:32:37;22.30;99.90
52231;DHT22;38192;50.102;19.884;2022-07-30T14:35:07;22.30;99.90
52231;DHT22;38192;50.102;19.884;2022-07-30T14:37:34;22.40;99.90
52231;DHT22;38192;50.102;19.884;2022-07-30T14:40:01;22.40;99.90
52231;DHT22;38192;50.102;19.884;2022-07-30T14:42:27;22.40;99.90
52231;DHT22;38192;50.102;19.884;2022-07-30T14:44:52;22.40;99.90
52231;DHT22;38192;50.102;19.884;2022-07-30T14:47:18;22.40;99.90
52231;DHT22;38192;50.102;19.884;2022-07-30T14:49:44;22.50;99.90
52231;DHT22;38192;50.102;19.884;2022-07-30T14:52:11;22.50;99.90
52231;DHT22;38192;50.102;19.884;2022-07-30T14:54:37;22.60;99.90
52231;DHT22;38192;50.102;19.884;2022-07-30T14:57:03;22.60;99.90
52231;DHT22;38192;50.102;19.884;2022-07-30T14:59:29;22.60;99.90
52231;DHT22;38192;50.102;19.884;2022-07-30T15:01:56;22.70;99.90
52231;DHT22;38192;50.102;19.884;2022-07-30T15:04:22;22.70;99.90
52231;DHT22;38192;50.102;19.884;2022-07-30T15:06:48;22.80;99.90
52231;DHT22;38192;50.102;19.884;2022-07-30T15:09:14;22.80;99.90
52231;DHT22;38192;50.102;19.884;2022-07-30T15:11:39;22.90;99.90
52231;DHT22;38192;50.102;19.884;2022-07-30T15:14:06;22.90;99.90
52231;DHT22;38192;50.102;19.884;2022-07-30T15:16:31;23.00;99.90
52231;DHT22;38192;50.102;19.884;2022-07-30T15:18:57;23.00;99.90
52231;DHT22;38192;50.102;19.884;2022-07-30T15:21:23;23.00;99.90
52231;DHT22;38192;50.102;19.884;2022-07-30T15:23:49;23.10;99.90
52231;DHT22;38192;50.102;19.884;2022-07-30T15:26:15;23.10;99.90
52231;DHT22;38192;50.102;19.884;2022-07-30T15:28:41;23.10;99.90
52231;DHT22;38192;50.102;19.884;2022-07-30T15:31:07;23.10;99.90
52231;DHT22;38192;50.102;19.884;2022-07-30T15:33:33;23.10;99.90
52231;DHT22;38192;50.102;19.884;2022-07-30T15:36:01;23.20;99.90
52231;DHT22;38192;50.102;19.884;2022-07-30T15:38:27;23.10;99.90
52231;DHT22;38192;50.102;19.884;2022-07-30T15:40:54;23.10;99.90
52231;DHT22;38192;50.102;19.884;2022-07-30T15:43:20;23.10;99.90
52231;DHT22;38192;50.102;19.884;2022-07-30T15:45:46;23.10;99.90
52231;DHT22;38192;50.102;19.884;2022-07-30T15:48:12;23.10;99.90
52231;DHT22;38192;50.102;19.884;2022-07-30T15:50:38;23.00;99.90
52231;DHT22;38192;50.102;19.884;2022-07-30T15:53:03;23.00;99.90
52231;DHT22;38192;50.102;19.884;2022-07-30T15:55:29;23.00;99.90
52231;DHT22;38192;50.102;19.884;2022-07-30T15:57:55;23.00;99.90
52231;DHT22;38192;50.102;19.884;2022-07-30T16:00:21;23.00;99.90
52231;DHT22;38192;50.102;19.884;2022-07-30T16:02:47;22.90;99.90
52231;DHT22;38192;50.102;19.884;2022-07-30T16:05:15;22.90;99.90
52231;DHT22;38192;50.102;19.884;2022-07-30T16:07:41;22.80;99.90
52231;DHT22;38192;50.102;19.884;2022-07-30T16:10:08;22.80;99.90